»·PEaware :: N6182G KBOI-KSUN

N6182G :: KBOI-KSUN

FLIGHT INFORMATION

Flight Status: Arrived
Operator: Privately registered:
United States
More flights under this callsign
Pilot: Paul A. (20189)
Aircraft: CESSNA 182 SKYLANE
(C182)
More flights by this aircraft type
Origin: KBOI Boise Air Terminal/Gowen
United States
Destination: KSUN Friedman Meml
United States
More flights between these airports :: More routes between these airports
Route: +
File this flight plan on PilotEdge
Remarks:
Altitude:
(Current/Filed)
9,500ft
Speed:
(Current/Filed)
120kts
Departed: 12-Oct-18 07:21 AM
Arrived: 12-Oct-18 08:06 AM
Distance/Time
Traveled:
84nm/0:45
Distance/Time
To Go:
Arrived

Flight Plot

Page will automatically refresh every two minutes.

Flight plan parsing failed; only flown route is shown


Map Options




Map Legend


Flown Route
Filed Route
Departure Airport
Arrival Airport
Navaid (VOR, NDB)
Fix

Horizontal Profiles

Position Reports

Time Latitude Longitude Heading Altitude Ground
Speed
12-Oct-18 07:12 43.567537 -116.216393 25 2837ft 0kts
12-Oct-18 07:13 43.567538 -116.216393 25 2837ft 0kts
12-Oct-18 07:14 43.567539 -116.216392 25 2837ft 0kts
12-Oct-18 07:15 43.567540 -116.216391 25 2837ft 0kts
12-Oct-18 07:16 43.566184 -116.217825 256 2837ft 2kts
12-Oct-18 07:17 43.565753 -116.219677 281 2837ft 5kts
12-Oct-18 07:18 43.567085 -116.224232 295 2837ft 14kts
12-Oct-18 07:19 43.569169 -116.230348 295 2837ft 19kts
12-Oct-18 07:20 43.571135 -116.237036 264 2837ft 12kts
12-Oct-18 07:21 43.570743 -116.236190 215 2837ft 0kts
12-Oct-18 07:22 43.569633 -116.235198 115 2837ft 39kts
12-Oct-18 07:23 43.560109 -116.212172 115 3652ft 84kts
12-Oct-18 07:24 43.548049 -116.178191 116 4571ft 107kts
12-Oct-18 07:25 43.534617 -116.139768 114 5471ft 113kts
12-Oct-18 07:26 43.521131 -116.100749 114 6350ft 112kts
12-Oct-18 07:27 43.511215 -116.060582 104 7219ft 109kts
12-Oct-18 07:28 43.502517 -116.016205 104 7570ft 141kts
12-Oct-18 07:29 43.491936 -115.961533 104 7561ft 148kts
12-Oct-18 07:30 43.481377 -115.906558 104 7562ft 148kts
12-Oct-18 07:31 43.470756 -115.851098 104 7504ft 150kts
12-Oct-18 07:32 43.460176 -115.795607 104 7502ft 149kts
12-Oct-18 07:33 43.449693 -115.740502 104 7504ft 149kts
12-Oct-18 07:34 43.442349 -115.684253 99 7504ft 149kts
12-Oct-18 07:35 43.437708 -115.627803 93 7505ft 148kts
12-Oct-18 07:36 43.452639 -115.577300 49 7509ft 148kts
12-Oct-18 07:37 43.479232 -115.533813 49 7507ft 148kts
12-Oct-18 07:38 43.499377 -115.484591 65 7505ft 148kts
12-Oct-18 07:39 43.507566 -115.429280 89 7509ft 148kts
12-Oct-18 07:40 43.494734 -115.376422 120 7512ft 149kts
12-Oct-18 07:41 43.473525 -115.327093 120 7510ft 149kts
12-Oct-18 07:42 43.452500 -115.277602 120 7512ft 150kts
12-Oct-18 07:43 43.437054 -115.224098 104 7507ft 150kts
12-Oct-18 07:44 43.432260 -115.166869 90 7516ft 153kts
12-Oct-18 07:45 43.431322 -115.108006 90 7508ft 152kts
12-Oct-18 07:46 43.430403 -115.050297 90 7511ft 150kts
12-Oct-18 07:47 43.429339 -114.992442 90 7513ft 153kts
12-Oct-18 07:48 43.428283 -114.933480 90 7505ft 153kts
12-Oct-18 07:49 43.427112 -114.875152 90 7512ft 151kts
12-Oct-18 07:50 43.425049 -114.817850 102 7505ft 149kts
12-Oct-18 07:51 43.413270 -114.763189 105 7513ft 149kts
12-Oct-18 07:52 43.401606 -114.708414 105 7515ft 149kts
12-Oct-18 07:53 43.389757 -114.653178 105 7501ft 150kts
12-Oct-18 07:54 43.378042 -114.598063 105 7498ft 150kts
12-Oct-18 07:55 43.365962 -114.542801 105 7500ft 151kts
12-Oct-18 07:56 43.354768 -114.489613 104 7489ft 137kts
12-Oct-18 07:57 43.350635 -114.438566 94 7501ft 134kts
12-Oct-18 07:58 43.348213 -114.387830 92 7498ft 133kts
12-Oct-18 07:59 43.345012 -114.337050 93 7498ft 134kts
12-Oct-18 08:00 43.342557 -114.284863 93 7016ft 137kts
12-Oct-18 08:01 43.354819 -114.243352 51 7117ft 102kts
12-Oct-18 08:02 43.377977 -114.220712 19 7225ft 108kts
12-Oct-18 08:03 43.408345 -114.217754 339 7108ft 112kts
12-Oct-18 08:04 43.433645 -114.234808 330 6901ft 95kts
12-Oct-18 08:05 43.453842 -114.247867 331 6521ft 95kts
12-Oct-18 08:06 43.478172 -114.270780 322 5792ft 84kts
12-Oct-18 08:07 43.492286 -114.284508 325 5400ft 72kts
12-Oct-18 08:08 43.504443 -114.296255 325 5303ft 17kts
12-Oct-18 08:09 43.505164 -114.298232 258 5303ft 10kts

Navigation Log

Ident Type
Flight plan parsing failed, navigation log unavailable